sensor_id;sensor_type;location;lat;lon;timestamp;P1;durP1;ratioP1;P2;durP2;ratioP2
12451;SDS011;6291;48.924;12.204;2022-09-09T00:03:48;13.40;;;12.00;;
12451;SDS011;6291;48.924;12.204;2022-09-09T00:09:00;14.90;;;13.35;;
12451;SDS011;6291;48.924;12.204;2022-09-09T00:14:10;25.02;;;15.50;;
12451;SDS011;6291;48.924;12.204;2022-09-09T00:19:20;25.00;;;17.53;;
12451;SDS011;6291;48.924;12.204;2022-09-09T00:24:28;16.90;;;13.97;;
12451;SDS011;6291;48.924;12.204;2022-09-09T00:29:43;12.63;;;11.30;;
12451;SDS011;6291;48.924;12.204;2022-09-09T00:34:51;22.92;;;15.85;;
12451;SDS011;6291;48.924;12.204;2022-09-09T00:39:57;18.20;;;14.70;;
12451;SDS011;6291;48.924;12.204;2022-09-09T00:45:10;18.23;;;15.98;;
12451;SDS011;6291;48.924;12.204;2022-09-09T00:50:31;23.42;;;17.13;;
12451;SDS011;6291;48.924;12.204;2022-09-09T00:55:46;23.13;;;18.73;;
12451;SDS011;6291;48.924;12.204;2022-09-09T01:00:59;29.73;;;19.53;;
12451;SDS011;6291;48.924;12.204;2022-09-09T01:06:13;64.03;;;15.70;;
12451;SDS011;6291;48.924;12.204;2022-09-09T01:11:20;31.75;;;14.85;;
12451;SDS011;6291;48.924;12.204;2022-09-09T01:16:32;33.77;;;17.13;;
12451;SDS011;6291;48.924;12.204;2022-09-09T01:21:38;31.63;;;16.87;;
12451;SDS011;6291;48.924;12.204;2022-09-09T01:26:53;13.85;;;12.50;;
12451;SDS011;6291;48.924;12.204;2022-09-09T01:32:01;12.87;;;11.50;;
12451;SDS011;6291;48.924;12.204;2022-09-09T01:37:26;19.07;;;16.63;;
12451;SDS011;6291;48.924;12.204;2022-09-09T01:42:31;33.35;;;18.60;;
12451;SDS011;6291;48.924;12.204;2022-09-09T01:47:34;47.03;;;17.98;;
12451;SDS011;6291;48.924;12.204;2022-09-09T01:52:51;30.30;;;15.60;;
12451;SDS011;6291;48.924;12.204;2022-09-09T01:58:17;30.45;;;16.90;;
12451;SDS011;6291;48.924;12.204;2022-09-09T02:03:31;41.33;;;17.87;;
12451;SDS011;6291;48.924;12.204;2022-09-09T02:08:55;42.42;;;17.45;;
12451;SDS011;6291;48.924;12.204;2022-09-09T02:14:02;49.50;;;14.70;;
12451;SDS011;6291;48.924;12.204;2022-09-09T02:19:14;49.05;;;14.05;;
12451;SDS011;6291;48.924;12.204;2022-09-09T02:24:36;32.25;;;10.40;;
12451;SDS011;6291;48.924;12.204;2022-09-09T02:29:52;45.72;;;11.02;;
12451;SDS011;6291;48.924;12.204;2022-09-09T02:35:11;29.58;;;10.25;;
12451;SDS011;6291;48.924;12.204;2022-09-09T02:40:17;23.37;;;8.37;;
12451;SDS011;6291;48.924;12.204;2022-09-09T02:45:31;21.60;;;8.60;;
12451;SDS011;6291;48.924;12.204;2022-09-09T02:50:49;18.40;;;8.68;;
12451;SDS011;6291;48.924;12.204;2022-09-09T02:56:01;18.75;;;7.38;;
12451;SDS011;6291;48.924;12.204;2022-09-09T03:01:12;9.40;;;5.68;;
12451;SDS011;6291;48.924;12.204;2022-09-09T03:06:16;16.60;;;8.50;;
12451;SDS011;6291;48.924;12.204;2022-09-09T03:11:25;16.83;;;9.40;;
12451;SDS011;6291;48.924;12.204;2022-09-09T03:16:30;17.60;;;8.10;;
12451;SDS011;6291;48.924;12.204;2022-09-09T03:21:35;12.23;;;7.03;;
12451;SDS011;6291;48.924;12.204;2022-09-09T03:26:39;21.67;;;10.00;;
12451;SDS011;6291;48.924;12.204;2022-09-09T03:31:50;16.73;;;10.63;;
12451;SDS011;6291;48.924;12.204;2022-09-09T03:36:55;35.45;;;10.30;;
12451;SDS011;6291;48.924;12.204;2022-09-09T03:42:00;37.45;;;11.77;;
12451;SDS011;6291;48.924;12.204;2022-09-09T03:47:08;45.07;;;13.67;;
12451;SDS011;6291;48.924;12.204;2022-09-09T03:52:11;56.33;;;12.70;;
12451;SDS011;6291;48.924;12.204;2022-09-09T03:57:15;22.70;;;13.82;;
12451;SDS011;6291;48.924;12.204;2022-09-09T04:02:20;55.03;;;14.45;;
12451;SDS011;6291;48.924;12.204;2022-09-09T04:07:24;92.05;;;15.88;;
12451;SDS011;6291;48.924;12.204;2022-09-09T04:12:29;106.03;;;16.77;;
12451;SDS011;6291;48.924;12.204;2022-09-09T04:17:34;53.63;;;16.38;;
12451;SDS011;6291;48.924;12.204;2022-09-09T04:22:39;48.38;;;16.17;;
12451;SDS011;6291;48.924;12.204;2022-09-09T04:27:42;47.13;;;15.98;;
12451;SDS011;6291;48.924;12.204;2022-09-09T04:32:47;69.13;;;17.77;;
12451;SDS011;6291;48.924;12.204;2022-09-09T04:37:50;48.10;;;17.60;;
12451;SDS011;6291;48.924;12.204;2022-09-09T04:42:54;77.45;;;15.05;;
12451;SDS011;6291;48.924;12.204;2022-09-09T04:47:58;76.97;;;16.47;;
12451;SDS011;6291;48.924;12.204;2022-09-09T04:53:03;73.10;;;14.90;;
12451;SDS011;6291;48.924;12.204;2022-09-09T04:58:10;81.85;;;17.90;;
12451;SDS011;6291;48.924;12.204;2022-09-09T05:03:16;112.00;;;17.42;;
12451;SDS011;6291;48.924;12.204;2022-09-09T05:08:20;56.22;;;17.92;;
12451;SDS011;6291;48.924;12.204;2022-09-09T05:13:24;55.92;;;16.00;;
12451;SDS011;6291;48.924;12.204;2022-09-09T05:18:29;35.50;;;15.73;;
12451;SDS011;6291;48.924;12.204;2022-09-09T05:23:33;35.58;;;13.18;;
12451;SDS011;6291;48.924;12.204;2022-09-09T05:28:37;42.72;;;13.48;;
12451;SDS011;6291;48.924;12.204;2022-09-09T05:33:43;75.75;;;12.48;;
12451;SDS011;6291;48.924;12.204;2022-09-09T05:38:48;39.67;;;11.75;;
12451;SDS011;6291;48.924;12.204;2022-09-09T05:43:53;43.90;;;12.43;;
12451;SDS011;6291;48.924;12.204;2022-09-09T05:48:59;29.60;;;10.03;;
12451;SDS011;6291;48.924;12.204;2022-09-09T05:54:05;17.65;;;8.15;;
12451;SDS011;6291;48.924;12.204;2022-09-09T05:59:13;12.33;;;6.50;;
12451;SDS011;6291;48.924;12.204;2022-09-09T06:04:17;7.10;;;6.17;;
12451;SDS011;6291;48.924;12.204;2022-09-09T06:09:25;10.23;;;5.90;;
12451;SDS011;6291;48.924;12.204;2022-09-09T06:14:29;7.90;;;5.33;;
12451;SDS011;6291;48.924;12.204;2022-09-09T06:19:36;7.38;;;5.78;;
12451;SDS011;6291;48.924;12.204;2022-09-09T06:24:40;10.32;;;4.97;;
12451;SDS011;6291;48.924;12.204;2022-09-09T06:29:44;40.58;;;6.80;;
12451;SDS011;6291;48.924;12.204;2022-09-09T06:34:51;62.37;;;8.37;;
12451;SDS011;6291;48.924;12.204;2022-09-09T06:39:54;8.80;;;6.90;;
12451;SDS011;6291;48.924;12.204;2022-09-09T06:44:58;16.20;;;6.63;;
12451;SDS011;6291;48.924;12.204;2022-09-09T06:50:15;29.52;;;7.03;;
12451;SDS011;6291;48.924;12.204;2022-09-09T06:55:19;24.98;;;7.30;;
12451;SDS011;6291;48.924;12.204;2022-09-09T07:00:23;6.23;;;5.73;;
12451;SDS011;6291;48.924;12.204;2022-09-09T07:05:28;8.80;;;6.53;;
12451;SDS011;6291;48.924;12.204;2022-09-09T07:10:32;6.50;;;5.90;;
12451;SDS011;6291;48.924;12.204;2022-09-09T07:15:36;6.38;;;5.78;;
12451;SDS011;6291;48.924;12.204;2022-09-09T07:20:41;5.37;;;4.87;;
12451;SDS011;6291;48.924;12.204;2022-09-09T07:25:44;5.03;;;4.53;;
12451;SDS011;6291;48.924;12.204;2022-09-09T07:30:53;5.43;;;4.93;;
12451;SDS011;6291;48.924;12.204;2022-09-09T07:36:03;5.75;;;4.85;;
12451;SDS011;6291;48.924;12.204;2022-09-09T07:41:09;4.93;;;4.50;;
12451;SDS011;6291;48.924;12.204;2022-09-09T07:46:15;5.93;;;4.93;;
12451;SDS011;6291;48.924;12.204;2022-09-09T07:51:23;6.47;;;5.75;;
12451;SDS011;6291;48.924;12.204;2022-09-09T07:56:27;4.80;;;4.40;;
12451;SDS011;6291;48.924;12.204;2022-09-09T08:01:35;5.03;;;4.53;;
12451;SDS011;6291;48.924;12.204;2022-09-09T08:06:44;5.15;;;4.70;;
12451;SDS011;6291;48.924;12.204;2022-09-09T08:11:50;4.78;;;4.38;;
12451;SDS011;6291;48.924;12.204;2022-09-09T08:16:54;5.47;;;4.97;;
12451;SDS011;6291;48.924;12.204;2022-09-09T08:22:03;5.20;;;4.80;;
12451;SDS011;6291;48.924;12.204;2022-09-09T08:27:07;4.50;;;4.10;;
12451;SDS011;6291;48.924;12.204;2022-09-09T08:32:12;4.28;;;3.33;;
12451;SDS011;6291;48.924;12.204;2022-09-09T08:37:17;3.58;;;3.28;;
12451;SDS011;6291;48.924;12.204;2022-09-09T08:42:27;3.77;;;3.00;;
12451;SDS011;6291;48.924;12.204;2022-09-09T08:47:41;3.80;;;2.80;;
12451;SDS011;6291;48.924;12.204;2022-09-09T08:52:57;3.45;;;3.00;;
12451;SDS011;6291;48.924;12.204;2022-09-09T08:58:09;3.77;;;2.70;;
12451;SDS011;6291;48.924;12.204;2022-09-09T09:03:18;3.50;;;3.20;;
12451;SDS011;6291;48.924;12.204;2022-09-09T09:08:33;3.72;;;2.90;;
12451;SDS011;6291;48.924;12.204;2022-09-09T09:13:43;6.15;;;3.58;;
12451;SDS011;6291;48.924;12.204;2022-09-09T09:18:52;4.22;;;3.30;;
12451;SDS011;6291;48.924;12.204;2022-09-09T09:24:01;3.67;;;2.92;;
12451;SDS011;6291;48.924;12.204;2022-09-09T09:29:08;3.43;;;2.50;;
12451;SDS011;6291;48.924;12.204;2022-09-09T09:34:15;3.13;;;2.30;;
12451;SDS011;6291;48.924;12.204;2022-09-09T09:39:25;3.38;;;2.10;;
12451;SDS011;6291;48.924;12.204;2022-09-09T09:44:50;4.45;;;2.20;;
12451;SDS011;6291;48.924;12.204;2022-09-09T09:49:56;5.30;;;1.80;;
12451;SDS011;6291;48.924;12.204;2022-09-09T09:55:11;3.00;;;1.60;;
12451;SDS011;6291;48.924;12.204;2022-09-09T10:00:19;3.00;;;1.50;;
12451;SDS011;6291;48.924;12.204;2022-09-09T10:05:35;2.20;;;1.52;;
12451;SDS011;6291;48.924;12.204;2022-09-09T10:16:23;3.77;;;2.30;;
12451;SDS011;6291;48.924;12.204;2022-09-09T10:27:09;2.35;;;1.30;;
12451;SDS011;6291;48.924;12.204;2022-09-09T10:32:33;2.80;;;1.13;;
12451;SDS011;6291;48.924;12.204;2022-09-09T10:37:43;1.60;;;1.23;;
12451;SDS011;6291;48.924;12.204;2022-09-09T10:43:12;2.20;;;1.40;;
12451;SDS011;6291;48.924;12.204;2022-09-09T10:48:26;2.75;;;1.30;;
12451;SDS011;6291;48.924;12.204;2022-09-09T10:53:36;2.13;;;1.27;;
12451;SDS011;6291;48.924;12.204;2022-09-09T10:58:46;2.17;;;1.20;;
12451;SDS011;6291;48.924;12.204;2022-09-09T11:03:54;2.20;;;1.17;;
12451;SDS011;6291;48.924;12.204;2022-09-09T11:09:01;2.10;;;1.10;;
12451;SDS011;6291;48.924;12.204;2022-09-09T11:14:10;2.33;;;1.30;;
12451;SDS011;6291;48.924;12.204;2022-09-09T11:19:19;3.47;;;1.20;;
12451;SDS011;6291;48.924;12.204;2022-09-09T11:24:29;1.85;;;0.90;;
12451;SDS011;6291;48.924;12.204;2022-09-09T11:30:13;1.38;;;1.00;;
12451;SDS011;6291;48.924;12.204;2022-09-09T11:35:44;2.35;;;1.00;;
12451;SDS011;6291;48.924;12.204;2022-09-09T11:41:08;1.95;;;0.90;;
12451;SDS011;6291;48.924;12.204;2022-09-09T11:46:14;2.00;;;0.88;;
12451;SDS011;6291;48.924;12.204;2022-09-09T11:51:25;2.33;;;0.80;;
12451;SDS011;6291;48.924;12.204;2022-09-09T11:56:30;2.50;;;1.48;;
12451;SDS011;6291;48.924;12.204;2022-09-09T12:01:37;1.63;;;0.90;;
12451;SDS011;6291;48.924;12.204;2022-09-09T12:06:43;1.80;;;0.80;;
12451;SDS011;6291;48.924;12.204;2022-09-09T12:11:48;2.10;;;1.00;;
12451;SDS011;6291;48.924;12.204;2022-09-09T12:16:53;2.38;;;1.02;;
12451;SDS011;6291;48.924;12.204;2022-09-09T12:21:58;2.00;;;1.00;;
12451;SDS011;6291;48.924;12.204;2022-09-09T12:27:12;1.20;;;0.90;;
12451;SDS011;6291;48.924;12.204;2022-09-09T12:32:22;1.58;;;1.00;;
12451;SDS011;6291;48.924;12.204;2022-09-09T12:37:29;1.40;;;1.02;;
12451;SDS011;6291;48.924;12.204;2022-09-09T12:42:39;2.00;;;1.40;;
12451;SDS011;6291;48.924;12.204;2022-09-09T12:47:45;2.03;;;1.52;;
12451;SDS011;6291;48.924;12.204;2022-09-09T12:52:52;2.90;;;1.40;;
12451;SDS011;6291;48.924;12.204;2022-09-09T12:57:58;3.25;;;1.50;;
12451;SDS011;6291;48.924;12.204;2022-09-09T13:03:16;2.50;;;1.30;;
12451;SDS011;6291;48.924;12.204;2022-09-09T13:08:21;2.17;;;1.58;;
12451;SDS011;6291;48.924;12.204;2022-09-09T13:13:26;1.80;;;1.25;;
12451;SDS011;6291;48.924;12.204;2022-09-09T13:18:36;2.10;;;1.08;;
12451;SDS011;6291;48.924;12.204;2022-09-09T13:23:47;1.88;;;1.10;;
12451;SDS011;6291;48.924;12.204;2022-09-09T13:28:52;2.57;;;1.03;;
12451;SDS011;6291;48.924;12.204;2022-09-09T13:33:57;2.60;;;0.93;;
12451;SDS011;6291;48.924;12.204;2022-09-09T13:39:02;1.00;;;0.70;;
12451;SDS011;6291;48.924;12.204;2022-09-09T13:44:06;1.50;;;0.60;;
12451;SDS011;6291;48.924;12.204;2022-09-09T13:49:21;1.20;;;0.60;;
12451;SDS011;6291;48.924;12.204;2022-09-09T13:54:25;1.17;;;0.40;;
12451;SDS011;6291;48.924;12.204;2022-09-09T13:59:29;1.30;;;0.50;;
12451;SDS011;6291;48.924;12.204;2022-09-09T14:04:54;0.97;;;0.50;;
12451;SDS011;6291;48.924;12.204;2022-09-09T14:09:57;2.40;;;0.67;;
12451;SDS011;6291;48.924;12.204;2022-09-09T14:15:01;1.55;;;0.60;;
12451;SDS011;6291;48.924;12.204;2022-09-09T14:20:07;0.88;;;0.65;;
12451;SDS011;6291;48.924;12.204;2022-09-09T14:25:13;1.90;;;0.50;;
12451;SDS011;6291;48.924;12.204;2022-09-09T14:30:16;1.00;;;0.50;;
12451;SDS011;6291;48.924;12.204;2022-09-09T14:35:21;1.52;;;0.73;;
12451;SDS011;6291;48.924;12.204;2022-09-09T14:40:25;1.65;;;0.70;;
12451;SDS011;6291;48.924;12.204;2022-09-09T14:45:28;1.43;;;0.60;;
12451;SDS011;6291;48.924;12.204;2022-09-09T14:50:33;1.42;;;0.60;;
12451;SDS011;6291;48.924;12.204;2022-09-09T14:55:41;1.60;;;0.50;;
12451;SDS011;6291;48.924;12.204;2022-09-09T15:00:44;0.93;;;0.60;;
12451;SDS011;6291;48.924;12.204;2022-09-09T15:05:49;1.30;;;0.60;;
12451;SDS011;6291;48.924;12.204;2022-09-09T15:10:58;2.25;;;0.60;;
12451;SDS011;6291;48.924;12.204;2022-09-09T15:16:05;1.42;;;0.60;;
12451;SDS011;6291;48.924;12.204;2022-09-09T15:21:11;2.25;;;0.50;;
12451;SDS011;6291;48.924;12.204;2022-09-09T15:26:15;0.80;;;0.50;;
12451;SDS011;6291;48.924;12.204;2022-09-09T15:31:19;2.30;;;0.77;;
12451;SDS011;6291;48.924;12.204;2022-09-09T15:36:26;1.63;;;1.00;;
12451;SDS011;6291;48.924;12.204;2022-09-09T15:41:31;1.45;;;0.55;;
12451;SDS011;6291;48.924;12.204;2022-09-09T15:46:36;0.83;;;0.50;;
12451;SDS011;6291;48.924;12.204;2022-09-09T15:51:42;1.52;;;0.40;;
12451;SDS011;6291;48.924;12.204;2022-09-09T15:56:47;1.70;;;0.40;;
12451;SDS011;6291;48.924;12.204;2022-09-09T16:01:53;1.40;;;0.50;;
12451;SDS011;6291;48.924;12.204;2022-09-09T16:07:00;3.42;;;1.70;;
12451;SDS011;6291;48.924;12.204;2022-09-09T16:12:05;0.73;;;0.40;;
12451;SDS011;6291;48.924;12.204;2022-09-09T16:17:11;0.82;;;0.50;;
12451;SDS011;6291;48.924;12.204;2022-09-09T16:22:16;1.02;;;0.55;;
12451;SDS011;6291;48.924;12.204;2022-09-09T16:27:20;0.80;;;0.40;;
12451;SDS011;6291;48.924;12.204;2022-09-09T16:32:24;0.98;;;0.50;;
12451;SDS011;6291;48.924;12.204;2022-09-09T16:37:29;2.10;;;0.70;;
12451;SDS011;6291;48.924;12.204;2022-09-09T16:42:32;1.80;;;0.70;;
12451;SDS011;6291;48.924;12.204;2022-09-09T16:47:40;1.17;;;0.88;;
12451;SDS011;6291;48.924;12.204;2022-09-09T16:52:44;1.17;;;0.50;;
12451;SDS011;6291;48.924;12.204;2022-09-09T16:57:48;2.38;;;0.90;;
12451;SDS011;6291;48.924;12.204;2022-09-09T17:02:51;1.55;;;0.95;;
12451;SDS011;6291;48.924;12.204;2022-09-09T17:07:56;1.30;;;0.47;;
12451;SDS011;6291;48.924;12.204;2022-09-09T17:12:59;0.67;;;0.60;;
12451;SDS011;6291;48.924;12.204;2022-09-09T17:18:03;1.45;;;0.68;;
12451;SDS011;6291;48.924;12.204;2022-09-09T17:23:10;1.00;;;0.68;;
12451;SDS011;6291;48.924;12.204;2022-09-09T17:28:14;1.02;;;0.50;;
12451;SDS011;6291;48.924;12.204;2022-09-09T17:33:18;1.30;;;0.52;;
12451;SDS011;6291;48.924;12.204;2022-09-09T17:38:23;0.80;;;0.60;;
12451;SDS011;6291;48.924;12.204;2022-09-09T17:43:31;1.08;;;0.57;;
12451;SDS011;6291;48.924;12.204;2022-09-09T17:48:36;1.15;;;0.90;;
12451;SDS011;6291;48.924;12.204;2022-09-09T17:53:42;1.27;;;0.80;;
12451;SDS011;6291;48.924;12.204;2022-09-09T17:58:47;1.02;;;0.70;;
12451;SDS011;6291;48.924;12.204;2022-09-09T18:03:51;0.80;;;0.50;;
12451;SDS011;6291;48.924;12.204;2022-09-09T18:08:56;1.65;;;0.65;;
12451;SDS011;6291;48.924;12.204;2022-09-09T18:14:01;1.67;;;0.60;;
12451;SDS011;6291;48.924;12.204;2022-09-09T18:19:06;2.00;;;0.60;;
12451;SDS011;6291;48.924;12.204;2022-09-09T18:24:14;1.75;;;0.60;;
12451;SDS011;6291;48.924;12.204;2022-09-09T18:29:19;3.63;;;0.82;;
12451;SDS011;6291;48.924;12.204;2022-09-09T18:34:26;3.53;;;1.93;;
12451;SDS011;6291;48.924;12.204;2022-09-09T18:39:32;2.30;;;0.82;;
12451;SDS011;6291;48.924;12.204;2022-09-09T18:44:36;4.30;;;0.80;;
12451;SDS011;6291;48.924;12.204;2022-09-09T18:49:40;3.80;;;0.70;;
12451;SDS011;6291;48.924;12.204;2022-09-09T18:54:44;3.30;;;0.73;;
12451;SDS011;6291;48.924;12.204;2022-09-09T18:59:49;0.45;;;0.40;;
12451;SDS011;6291;48.924;12.204;2022-09-09T19:04:55;1.90;;;0.73;;
12451;SDS011;6291;48.924;12.204;2022-09-09T19:09:59;1.30;;;0.60;;
12451;SDS011;6291;48.924;12.204;2022-09-09T19:15:04;2.30;;;0.70;;
12451;SDS011;6291;48.924;12.204;2022-09-09T19:20:08;2.23;;;0.70;;
12451;SDS011;6291;48.924;12.204;2022-09-09T19:25:13;1.42;;;0.60;;
12451;SDS011;6291;48.924;12.204;2022-09-09T19:30:17;1.10;;;0.75;;
12451;SDS011;6291;48.924;12.204;2022-09-09T19:35:21;2.58;;;0.90;;
12451;SDS011;6291;48.924;12.204;2022-09-09T19:40:26;3.43;;;1.00;;
12451;SDS011;6291;48.924;12.204;2022-09-09T19:45:31;3.85;;;1.00;;
12451;SDS011;6291;48.924;12.204;2022-09-09T19:50:35;1.30;;;0.80;;
12451;SDS011;6291;48.924;12.204;2022-09-09T19:55:40;1.90;;;0.90;;
12451;SDS011;6291;48.924;12.204;2022-09-09T20:00:43;1.20;;;0.70;;
12451;SDS011;6291;48.924;12.204;2022-09-09T20:05:47;1.95;;;0.80;;
12451;SDS011;6291;48.924;12.204;2022-09-09T20:10:52;3.55;;;0.85;;
12451;SDS011;6291;48.924;12.204;2022-09-09T20:15:56;1.73;;;0.80;;
12451;SDS011;6291;48.924;12.204;2022-09-09T20:21:02;51.73;;;33.37;;
12451;SDS011;6291;48.924;12.204;2022-09-09T20:26:09;17.65;;;11.80;;
12451;SDS011;6291;48.924;12.204;2022-09-09T20:31:15;23.83;;;18.15;;
12451;SDS011;6291;48.924;12.204;2022-09-09T20:36:21;5.30;;;2.87;;
12451;SDS011;6291;48.924;12.204;2022-09-09T20:41:29;1.85;;;1.00;;
12451;SDS011;6291;48.924;12.204;2022-09-09T20:46:34;0.82;;;0.63;;
12451;SDS011;6291;48.924;12.204;2022-09-09T20:51:38;1.33;;;0.60;;
12451;SDS011;6291;48.924;12.204;2022-09-09T20:56:43;2.73;;;0.80;;
12451;SDS011;6291;48.924;12.204;2022-09-09T21:01:48;2.40;;;0.80;;
12451;SDS011;6291;48.924;12.204;2022-09-09T21:06:53;0.85;;;0.60;;
12451;SDS011;6291;48.924;12.204;2022-09-09T21:11:57;1.25;;;0.63;;
12451;SDS011;6291;48.924;12.204;2022-09-09T21:17:01;1.90;;;0.70;;
12451;SDS011;6291;48.924;12.204;2022-09-09T21:22:04;3.13;;;0.80;;
12451;SDS011;6291;48.924;12.204;2022-09-09T21:27:09;3.10;;;1.50;;
12451;SDS011;6291;48.924;12.204;2022-09-09T21:32:12;1.08;;;0.80;;
12451;SDS011;6291;48.924;12.204;2022-09-09T21:37:15;1.10;;;0.70;;
12451;SDS011;6291;48.924;12.204;2022-09-09T21:42:20;1.90;;;0.80;;
12451;SDS011;6291;48.924;12.204;2022-09-09T21:47:23;1.92;;;0.80;;
12451;SDS011;6291;48.924;12.204;2022-09-09T21:52:27;1.52;;;0.80;;
12451;SDS011;6291;48.924;12.204;2022-09-09T21:57:32;1.35;;;0.82;;
12451;SDS011;6291;48.924;12.204;2022-09-09T22:02:35;1.33;;;0.90;;
12451;SDS011;6291;48.924;12.204;2022-09-09T22:07:39;1.13;;;0.80;;
12451;SDS011;6291;48.924;12.204;2022-09-09T22:12:44;3.45;;;1.00;;
12451;SDS011;6291;48.924;12.204;2022-09-09T22:17:47;3.30;;;1.20;;
12451;SDS011;6291;48.924;12.204;2022-09-09T22:22:51;2.73;;;1.13;;
12451;SDS011;6291;48.924;12.204;2022-09-09T22:27:55;2.22;;;1.20;;
12451;SDS011;6291;48.924;12.204;2022-09-09T22:32:59;1.30;;;1.10;;
12451;SDS011;6291;48.924;12.204;2022-09-09T22:38:03;3.63;;;1.40;;
12451;SDS011;6291;48.924;12.204;2022-09-09T22:43:11;2.27;;;1.60;;
12451;SDS011;6291;48.924;12.204;2022-09-09T22:48:16;2.30;;;1.47;;
12451;SDS011;6291;48.924;12.204;2022-09-09T22:53:20;4.82;;;2.00;;
12451;SDS011;6291;48.924;12.204;2022-09-09T22:58:24;5.53;;;1.90;;
12451;SDS011;6291;48.924;12.204;2022-09-09T23:03:30;2.93;;;1.50;;
12451;SDS011;6291;48.924;12.204;2022-09-09T23:08:34;3.50;;;1.70;;
12451;SDS011;6291;48.924;12.204;2022-09-09T23:13:41;3.73;;;2.00;;
12451;SDS011;6291;48.924;12.204;2022-09-09T23:18:48;2.95;;;1.60;;
12451;SDS011;6291;48.924;12.204;2022-09-09T23:23:52;2.20;;;1.45;;
12451;SDS011;6291;48.924;12.204;2022-09-09T23:28:58;4.57;;;2.22;;
12451;SDS011;6291;48.924;12.204;2022-09-09T23:34:03;3.95;;;1.88;;
12451;SDS011;6291;48.924;12.204;2022-09-09T23:39:07;2.78;;;2.05;;
12451;SDS011;6291;48.924;12.204;2022-09-09T23:44:13;3.08;;;2.42;;
12451;SDS011;6291;48.924;12.204;2022-09-09T23:49:16;3.00;;;1.90;;
12451;SDS011;6291;48.924;12.204;2022-09-09T23:54:20;2.20;;;1.60;;
12451;SDS011;6291;48.924;12.204;2022-09-09T23:59:24;1.90;;;1.60;;
